Time;durP1;ratioP1;P1;durP2;ratioP2;P2;SDS_P1;SDS_P2;PMS_P1;PMS_P2;Temp;Humidity;BMP_temperature;BMP_pressure;BME280_temperature;BME280_humidity;BME280_pressure;Samples;Min_cycle;Max_cycle;Signal;HPM_P1;HPM_P2
2023/03/11 00:01:56;;;;;;;6.22;2.67;;;;;;;14.60;61.71;97532.84;6109966;23;20005;-92
2023/03/11 00:04:21;;;;;;;8.80;2.50;;;;;;;14.55;61.62;97512.16;6135070;23;20008;-92
2023/03/11 00:06:49;;;;;;;5.18;2.72;;;;;;;14.58;61.71;97510.72;6110771;23;20000;-92
2023/03/11 00:09:15;;;;;;;6.07;2.17;;;;;;;14.56;61.54;97500.22;6135660;23;20024;-93
2023/03/11 00:11:40;;;;;;;4.80;2.13;;;;;;;14.67;61.62;97517.59;6110523;23;20001;-91
2023/03/11 00:14:11;;;;;;;4.03;2.15;;;;;;;14.62;61.55;97503.50;6134637;23;20048;-91
2023/03/11 00:16:37;;;;;;;6.20;2.50;;;;;;;14.50;62.15;97509.69;6111065;23;20436;-92
2023/03/11 00:19:02;;;;;;;6.13;2.85;;;;;;;14.56;61.94;97516.47;6111057;23;20012;-92
2023/03/11 00:21:28;;;;;;;3.88;2.05;;;;;;;14.42;62.03;97488.91;6110746;23;20352;-92
2023/03/11 00:23:59;;;;;;;3.63;2.33;;;;;;;14.52;61.70;97489.25;6109913;23;20004;-92
2023/03/11 00:26:26;;;;;;;4.10;2.40;;;;;;;14.55;61.43;97485.09;6112067;23;20032;-91
2023/03/11 00:28:54;;;;;;;5.30;2.25;;;;;;;14.63;61.43;97500.47;6137135;23;19993;-92
2023/03/11 00:31:20;;;;;;;6.97;2.60;;;;;;;14.52;61.86;97493.88;6137039;23;20036;-92
2023/03/11 00:33:49;;;;;;;4.38;2.05;;;;;;;14.59;61.68;97493.31;6112389;23;20052;-92
2023/03/11 00:36:27;;;;;;;7.53;2.53;;;;;;;14.60;61.75;97494.91;6113150;23;20005;-92
2023/03/11 00:38:53;;;;;;;6.38;2.28;;;;;;;14.31;62.69;97485.88;6138407;23;20004;-92
2023/03/11 00:41:19;;;;;;;7.22;2.45;;;;;;;14.34;62.43;97477.09;6136582;23;20001;-92
2023/03/11 00:43:44;;;;;;;4.75;2.08;;;;;;;14.37;62.61;97460.16;6160841;23;20005;-92
2023/03/11 00:46:10;;;;;;;9.02;2.63;;;;;;;14.37;62.54;97467.50;6112815;23;20060;-91
2023/03/11 00:48:35;;;;;;;4.50;2.35;;;;;;;14.34;62.64;97464.34;6112817;23;20348;-91
2023/03/11 00:51:01;;;;;;;5.88;2.80;;;;;;;14.33;62.73;97462.75;6112504;23;20008;-92
2023/03/11 00:53:30;;;;;;;7.50;2.47;;;;;;;14.47;62.44;97458.91;6135842;23;20012;-91
2023/03/11 00:55:55;;;;;;;7.72;2.38;;;;;;;14.41;62.24;97446.75;6112365;23;20011;-91
2023/03/11 00:58:26;;;;;;;4.55;2.25;;;;;;;14.44;62.38;97451.47;6112063;23;20421;-92
2023/03/11 01:01:16;;;;;;;4.07;2.53;;;;;;;14.48;62.64;97457.78;6114251;23;20005;-92
2023/03/11 01:03:41;;;;;;;5.55;2.40;;;;;;;14.39;62.66;97438.16;6136921;23;20005;-92
2023/03/11 01:06:07;;;;;;;6.13;2.47;;;;;;;14.39;63.09;97449.00;6136073;23;20011;-91
2023/03/11 01:08:33;;;;;;;5.82;2.67;;;;;;;14.39;62.95;97441.66;6135904;23;20004;-91
2023/03/11 01:10:58;;;;;;;8.63;2.60;;;;;;;14.30;63.66;97438.31;6112040;23;20368;-91
2023/03/11 01:13:28;;;;;;;5.47;2.33;;;;;;;14.23;63.47;97421.81;6111928;23;20001;-91
2023/03/11 01:15:54;;;;;;;4.57;2.50;;;;;;;14.33;63.62;97432.97;6136237;23;20028;-92
2023/03/11 01:18:19;;;;;;;5.72;2.50;;;;;;;14.31;63.67;97423.63;6111445;23;20428;-91
2023/03/11 01:20:48;;;;;;;4.85;2.28;;;;;;;14.35;63.63;97409.06;6111825;23;19997;-92
2023/03/11 01:23:14;;;;;;;3.67;2.20;;;;;;;14.39;63.40;97400.25;6112884;23;20001;-92
2023/03/11 01:25:40;;;;;;;7.30;3.00;;;;;;;14.46;63.51;97403.16;6111522;23;20379;-91
2023/03/11 01:28:09;;;;;;;4.53;2.42;;;;;;;14.41;63.25;97404.19;6111763;23;20062;-90
2023/03/11 01:30:38;;;;;;;5.43;2.55;;;;;;;14.32;63.62;97395.44;6112902;23;20088;-91
2023/03/11 01:33:04;;;;;;;4.75;2.20;;;;;;;14.28;63.99;97389.91;6112850;23;20001;-91
2023/03/11 01:35:34;;;;;;;3.05;1.88;;;;;;;14.31;63.77;97386.50;6112692;23;20024;-92
2023/03/11 01:38:00;;;;;;;3.55;2.30;;;;;;;14.30;63.97;97379.53;6111570;23;20074;-92
2023/03/11 01:40:50;;;;;;;5.78;2.47;;;;;;;14.21;63.90;97370.72;6112420;23;20087;-91
2023/03/11 01:43:39;;;;;;;4.78;2.20;;;;;;;14.23;64.21;97379.31;6115431;23;20424;-92
2023/03/11 01:46:07;;;;;;;4.80;2.13;;;;;;;14.19;64.20;97383.81;6161152;23;20004;-90
2023/03/11 01:48:33;;;;;;;6.35;2.22;;;;;;;14.09;64.41;97373.47;6135822;23;20000;-92
2023/03/11 01:50:59;;;;;;;5.28;2.20;;;;;;;14.00;64.67;97351.16;6111200;23;20444;-92
2023/03/11 01:53:24;;;;;;;4.53;2.20;;;;;;;13.99;64.57;97358.50;6136528;23;20055;-91
2023/03/11 01:55:50;;;;;;;6.07;2.47;;;;;;;14.04;64.65;97358.25;6111603;23;20000;-93
2023/03/11 01:58:27;;;;;;;6.40;2.50;;;;;;;14.04;64.64;97354.75;6136628;23;20084;-92
2023/03/11 02:00:53;;;;;;;5.38;2.47;;;;;;;14.01;64.75;97345.41;6135817;23;20082;-93
2023/03/11 02:03:25;;;;;;;4.03;2.03;;;;;;;14.02;64.75;97338.06;6111457;23;20080;-92
2023/03/11 02:05:51;;;;;;;7.38;2.10;;;;;;;13.89;64.85;97323.78;6111568;23;20432;-93
2023/03/11 02:08:17;;;;;;;9.68;2.45;;;;;;;13.88;64.71;97331.13;6135553;23;19997;-93
2023/03/11 02:10:43;;;;;;;5.35;2.30;;;;;;;13.89;65.04;97343.50;6111078;23;19997;-92
2023/03/11 02:13:11;;;;;;;5.00;1.98;;;;;;;13.86;65.30;97336.09;6135472;23;20059;-93
2023/03/11 02:15:39;;;;;;;5.93;2.25;;;;;;;13.97;65.21;97349.94;6110929;23;20004;-92
2023/03/11 02:18:08;;;;;;;4.38;1.80;;;;;;;13.92;65.11;97342.84;6111839;23;20143;-92
2023/03/11 02:20:54;;;;;;;4.75;2.17;;;;;;;13.96;65.24;97356.44;6112518;23;20051;-93
2023/03/11 02:23:20;;;;;;;4.78;2.05;;;;;;;13.91;65.21;97349.38;6137308;23;20000;-94
2023/03/11 02:25:52;;;;;;;4.93;2.15;;;;;;;13.86;65.03;97335.28;6135675;23;20004;-92
2023/03/11 02:28:18;;;;;;;4.95;2.17;;;;;;;13.88;65.24;97339.25;6111716;23;20036;-93
2023/03/11 02:30:44;;;;;;;6.15;2.25;;;;;;;13.85;65.14;97326.38;6135345;23;20428;-92
2023/03/11 02:33:09;;;;;;;6.53;2.17;;;;;;;13.92;65.25;97342.03;6135145;23;20005;-92
2023/03/11 02:35:35;;;;;;;5.68;2.17;;;;;;;13.89;65.31;97343.50;6136196;23;20005;-94
2023/03/11 02:38:13;;;;;;;9.07;2.40;;;;;;;13.89;65.35;97334.59;6110790;23;20008;-92
2023/03/11 02:40:43;;;;;;;3.60;2.10;;;;;;;13.78;65.16;97312.66;6136312;23;20001;-93
2023/03/11 02:43:14;;;;;;;4.82;2.25;;;;;;;13.94;64.95;97334.34;6136173;23;20012;-92
2023/03/11 02:45:40;;;;;;;6.28;2.13;;;;;;;13.82;65.12;97320.84;6112617;23;20420;-92
2023/03/11 02:48:06;;;;;;;5.05;2.60;;;;;;;13.91;64.74;97322.31;6111838;23;20076;-93
2023/03/11 02:50:33;;;;;;;5.55;2.20;;;;;;;13.88;65.29;97317.59;6111110;23;20059;-92
2023/03/11 02:52:58;;;;;;;3.65;1.88;;;;;;;13.92;65.14;97323.91;6111730;23;20036;-93
2023/03/11 02:55:24;;;;;;;9.07;2.63;;;;;;;13.78;65.25;97312.66;6110572;23;20005;-92
2023/03/11 02:57:53;;;;;;;5.55;2.05;;;;;;;13.85;65.31;97320.19;6110593;23;20001;-92
2023/03/11 03:00:19;;;;;;;2.67;2.05;;;;;;;13.84;65.26;97321.28;6111720;23;20359;-92
2023/03/11 03:02:44;;;;;;;3.63;2.13;;;;;;;13.82;65.27;97318.16;6134817;23;20066;-92
2023/03/11 03:05:10;;;;;;;3.92;1.98;;;;;;;13.75;65.49;97302.50;6135617;23;20008;-92
2023/03/11 03:07:47;;;;;;;5.18;2.20;;;;;;;13.81;65.33;97297.66;6112113;23;20499;-91
2023/03/11 03:10:12;;;;;;;3.05;1.98;;;;;;;13.77;65.35;97289.41;6111626;23;19997;-92
2023/03/11 03:12:45;;;;;;;8.50;2.53;;;;;;;13.79;65.59;97300.69;6135298;23;20009;-92
2023/03/11 03:15:11;;;;;;;4.40;1.92;;;;;;;13.76;65.48;97295.97;6135867;23;20035;-91
2023/03/11 03:17:37;;;;;;;4.90;1.85;;;;;;;13.77;65.64;97307.56;6110716;23;20009;-92
2023/03/11 03:20:07;;;;;;;3.30;2.17;;;;;;;13.70;65.69;97297.34;6110641;23;20001;-91
2023/03/11 03:22:33;;;;;;;3.50;2.00;;;;;;;13.67;65.74;97295.28;6112948;23;20001;-92
2023/03/11 03:24:58;;;;;;;3.65;2.20;;;;;;;13.61;65.54;97283.13;6110693;23;19997;-92
2023/03/11 03:27:24;;;;;;;3.75;1.88;;;;;;;13.60;65.95;97281.56;6110726;23;20009;-91
2023/03/11 03:29:50;;;;;;;6.47;2.35;;;;;;;13.70;65.72;97294.63;6110906;23;20004;-91
2023/03/11 03:32:15;;;;;;;4.32;2.08;;;;;;;13.53;65.85;97282.13;6134882;23;20412;-93
2023/03/11 03:34:41;;;;;;;3.58;1.83;;;;;;;13.57;65.97;97282.22;6135140;23;20017;-92
2023/03/11 03:37:07;;;;;;;2.67;1.77;;;;;;;13.60;65.74;97286.97;6110807;23;20051;-92
2023/03/11 03:39:32;;;;;;;3.97;2.67;;;;;;;13.60;65.72;97276.94;6110527;23;20009;-92
2023/03/11 03:42:03;;;;;;;4.85;2.00;;;;;;;13.59;65.88;97271.84;6135123;23;20009;-93
2023/03/11 03:44:29;;;;;;;3.42;1.90;;;;;;;13.62;65.75;97277.38;6111439;23;20005;-92
2023/03/11 03:46:55;;;;;;;3.22;1.98;;;;;;;13.49;65.46;97257.69;6110065;23;20074;-91
2023/03/11 03:49:21;;;;;;;5.53;2.08;;;;;;;13.61;65.78;97270.38;6110392;23;20032;-92
2023/03/11 03:51:46;;;;;;;3.28;1.80;;;;;;;13.57;65.82;97274.91;6110277;23;20004;-92
2023/03/11 03:54:12;;;;;;;3.47;1.92;;;;;;;13.54;65.72;97275.59;6111493;23;19997;-93
2023/03/11 03:56:37;;;;;;;3.17;2.00;;;;;;;13.46;65.81;97269.16;6134641;23;20027;-92
2023/03/11 03:59:03;;;;;;;4.72;2.10;;;;;;;13.51;65.66;97268.94;6110272;23;20004;-92
2023/03/11 04:01:29;;;;;;;3.72;2.28;;;;;;;13.46;66.24;97269.16;6134247;23;20001;-92
2023/03/11 04:03:54;;;;;;;4.05;1.90;;;;;;;13.53;65.86;97276.72;6135961;23;20001;-92
2023/03/11 04:06:22;;;;;;;3.97;2.30;;;;;;;13.39;65.99;97268.97;6134783;23;20020;-92
2023/03/11 04:08:49;;;;;;;4.90;2.20;;;;;;;13.45;66.28;97283.81;6111612;23;20008;-93
2023/03/11 04:11:14;;;;;;;5.13;2.30;;;;;;;13.51;66.08;97295.22;6110569;23;20005;-92
2023/03/11 04:13:43;;;;;;;3.75;2.25;;;;;;;13.46;66.00;97277.28;6110504;23;20008;-92
2023/03/11 04:16:12;;;;;;;6.95;3.22;;;;;;;13.43;66.11;97280.66;6112017;23;20007;-92
2023/03/11 04:18:38;;;;;;;5.72;3.42;;;;;;;13.47;66.07;97286.97;6111535;23;20088;-92
2023/03/11 04:21:06;;;;;;;6.93;3.38;;;;;;;13.45;66.09;97297.34;6134889;23;20003;-93
2023/03/11 04:23:32;;;;;;;6.68;2.88;;;;;;;13.41;65.47;97291.03;6110146;23;20028;-92
2023/03/11 04:25:58;;;;;;;5.90;2.38;;;;;;;13.43;64.59;97296.09;6134563;23;20005;-92
2023/03/11 04:28:24;;;;;;;5.13;2.28;;;;;;;13.34;65.03;97304.31;6134675;23;19997;-93
2023/03/11 04:30:49;;;;;;;6.07;2.25;;;;;;;13.34;64.08;97313.22;6110212;23;20005;-93
2023/03/11 04:33:15;;;;;;;3.47;1.85;;;;;;;13.19;64.55;97327.34;6110759;23;20375;-91
2023/03/11 04:35:41;;;;;;;4.13;2.13;;;;;;;13.10;64.61;97324.75;6136065;23;20001;-92
2023/03/11 04:38:06;;;;;;;3.20;2.08;;;;;;;13.08;65.08;97335.09;6111279;23;20009;-92
2023/03/11 04:40:32;;;;;;;3.08;2.00;;;;;;;12.92;65.35;97318.75;6111368;23;20012;-92
2023/03/11 04:42:58;;;;;;;3.38;1.80;;;;;;;12.99;65.34;97323.63;6110911;23;20404;-92
2023/03/11 04:45:31;;;;;;;2.53;1.88;;;;;;;12.89;65.35;97322.13;6110982;23;20040;-92
2023/03/11 04:47:57;;;;;;;2.42;1.77;;;;;;;12.98;65.73;97332.06;6135108;23;20032;-92
2023/03/11 04:50:23;;;;;;;2.97;1.80;;;;;;;13.00;65.88;97325.19;6135166;23;19997;-92
2023/03/11 04:52:49;;;;;;;2.63;2.10;;;;;;;12.88;66.13;97322.44;6111609;23;20001;-92
2023/03/11 04:55:15;;;;;;;4.18;2.05;;;;;;;12.97;65.89;97333.97;6134739;23;20005;-93
2023/03/11 04:57:41;;;;;;;4.88;1.92;;;;;;;12.98;66.10;97329.34;6111045;23;20035;-91
2023/03/11 05:00:09;;;;;;;2.55;1.83;;;;;;;13.02;65.84;97330.25;6110239;23;20480;-92
2023/03/11 05:02:35;;;;;;;2.95;1.90;;;;;;;13.05;66.03;97332.28;6135495;23;20483;-91
2023/03/11 05:05:00;;;;;;;4.70;2.63;;;;;;;13.02;65.94;97332.97;6110189;23;20003;-92
2023/03/11 05:07:26;;;;;;;2.40;1.60;;;;;;;13.11;66.23;97344.44;6135587;23;20040;-92
2023/03/11 05:09:52;;;;;;;2.58;1.98;;;;;;;13.18;66.06;97349.28;6134660;23;20365;-92
2023/03/11 05:12:18;;;;;;;3.13;2.10;;;;;;;13.24;66.10;97356.88;6135032;23;20004;-92
2023/03/11 05:14:43;;;;;;;3.05;1.80;;;;;;;13.23;66.19;97357.19;6111553;23;20000;-93
2023/03/11 05:17:11;;;;;;;4.40;2.67;;;;;;;13.26;65.82;97370.84;6137123;23;20001;-93
2023/03/11 05:19:37;;;;;;;4.50;2.70;;;;;;;13.25;65.93;97366.56;6112190;23;20091;-91
2023/03/11 05:22:03;;;;;;;6.90;2.42;;;;;;;13.27;65.63;97375.13;6136580;23;20369;-92
2023/03/11 05:24:28;;;;;;;8.07;2.78;;;;;;;13.19;66.19;97378.69;6112385;23;20001;-92
2023/03/11 05:26:54;;;;;;;8.60;3.08;;;;;;;13.22;66.41;97375.34;6136305;23;20008;-93
2023/03/11 05:29:20;;;;;;;4.88;2.70;;;;;;;13.12;66.44;97375.75;6112121;23;20003;-93
2023/03/11 05:31:45;;;;;;;6.82;2.53;;;;;;;13.25;66.18;97382.75;6111987;23;20005;-92
2023/03/11 05:34:12;;;;;;;4.50;2.63;;;;;;;13.28;66.04;97394.81;6136194;23;20444;-92
2023/03/11 05:36:41;;;;;;;3.35;2.40;;;;;;;13.37;66.46;97408.28;6112295;23;20393;-93
2023/03/11 05:39:07;;;;;;;6.10;3.25;;;;;;;13.09;67.40;97393.44;6111786;23;20013;-93
2023/03/11 05:41:32;;;;;;;3.95;2.55;;;;;;;13.22;67.84;97415.06;6111441;23;20059;-92
2023/03/11 05:43:58;;;;;;;4.00;2.17;;;;;;;13.17;68.00;97405.25;6111608;23;20005;-93
2023/03/11 05:46:24;;;;;;;3.58;2.10;;;;;;;13.22;68.32;97412.38;6111530;23;20352;-92
2023/03/11 05:48:50;;;;;;;6.43;3.10;;;;;;;13.01;70.26;97431.31;6135812;23;20452;-92
2023/03/11 05:51:19;;;;;;;3.33;2.30;;;;;;;13.10;70.08;97435.53;6111461;23;20001;-93
2023/03/11 05:53:47;;;;;;;5.25;3.17;;;;;;;12.97;71.71;97427.72;6113204;23;20000;-93
2023/03/11 05:56:22;;;;;;;3.80;2.78;;;;;;;12.89;72.11;97407.78;6112901;23;20047;-93
2023/03/11 05:58:50;;;;;;;7.95;3.20;;;;;;;12.84;73.13;97407.97;6135435;23;20016;-93
2023/03/11 06:01:17;;;;;;;4.10;3.65;;;;;;;12.79;73.53;97421.69;6136288;23;20075;-92
2023/03/11 06:03:43;;;;;;;4.50;2.92;;;;;;;12.69;74.02;97407.44;6111420;23;20045;-91
2023/03/11 06:06:17;;;;;;;8.07;4.35;;;;;;;12.57;74.86;97415.50;6136491;23;20003;-92
2023/03/11 06:08:48;;;;;;;8.50;5.28;;;;;;;12.53;74.82;97406.47;6139224;23;20024;-92
2023/03/11 06:11:14;;;;;;;8.68;5.60;;;;;;;12.56;75.35;97405.81;6114166;23;20439;-93
2023/03/11 06:13:39;;;;;;;10.60;7.22;;;;;;;12.57;75.68;97403.91;6112156;23;20004;-92
2023/03/11 06:16:06;;;;;;;18.33;8.40;;;;;;;12.69;75.14;97415.56;6111246;23;20004;-92
2023/03/11 06:18:31;;;;;;;7.95;5.55;;;;;;;12.69;75.00;97417.47;6111538;23;20008;-92
2023/03/11 06:20:57;;;;;;;9.85;5.65;;;;;;;12.72;75.18;97411.41;6110516;23;20004;-92
2023/03/11 06:23:23;;;;;;;11.77;7.18;;;;;;;12.79;74.71;97416.28;6111828;23;20076;-92
2023/03/11 06:26:02;;;;;;;13.05;8.15;;;;;;;12.92;74.60;97412.50;6111124;23;20008;-92
2023/03/11 06:28:28;;;;;;;9.38;7.05;;;;;;;12.89;74.38;97408.56;6135757;23;20004;-92
2023/03/11 06:30:55;;;;;;;11.23;6.57;;;;;;;12.91;74.14;97405.53;6135550;23;20005;-93
2023/03/11 06:33:24;;;;;;;10.48;6.68;;;;;;;13.08;73.95;97423.50;6111383;23;20025;-92
2023/03/11 06:35:59;;;;;;;9.50;6.50;;;;;;;13.22;73.89;97442.91;6111797;23;20011;-92
2023/03/11 06:38:25;;;;;;;8.68;5.70;;;;;;;13.20;73.87;97434.34;6112155;23;20016;-92
2023/03/11 06:40:51;;;;;;;11.07;5.70;;;;;;;13.14;73.73;97433.75;6110896;23;20024;-92
2023/03/11 06:43:17;;;;;;;7.32;5.50;;;;;;;12.96;73.32;97435.03;6134822;23;20005;-92
2023/03/11 06:45:43;;;;;;;9.50;6.45;;;;;;;12.84;73.28;97421.47;6112123;23;20485;-93
2023/03/11 06:48:18;;;;;;;8.90;5.32;;;;;;;13.21;72.03;97427.00;6136036;23;19997;-92
2023/03/11 06:50:47;;;;;;;11.10;7.93;;;;;;;13.28;73.43;97452.38;6111105;23;20478;-93
2023/03/11 06:53:13;;;;;;;16.65;9.75;;;;;;;13.40;73.62;97456.25;6112213;23;20008;-92
2023/03/11 06:55:38;;;;;;;12.55;8.65;;;;;;;13.39;73.40;97438.47;6135895;23;20032;-93
2023/03/11 06:58:04;;;;;;;10.57;7.45;;;;;;;13.38;73.83;97448.47;6111149;23;20428;-92
2023/03/11 07:00:35;;;;;;;6.35;4.30;;;;;;;13.59;72.60;97439.50;6135281;23;20004;-94
2023/03/11 07:03:04;;;;;;;3.92;2.58;;;;;;;13.55;71.70;97425.91;6135975;23;20012;-93
2023/03/11 07:05:30;;;;;;;3.85;2.60;;;;;;;13.76;71.00;97439.31;6135863;23;19997;-93
2023/03/11 07:07:58;;;;;;;3.58;2.35;;;;;;;13.87;70.69;97451.28;6110287;23;20127;-92
2023/03/11 07:10:24;;;;;;;2.97;2.38;;;;;;;13.80;70.40;97439.41;6112392;23;20162;-93
2023/03/11 07:12:50;;;;;;;3.28;2.15;;;;;;;13.92;70.43;97442.13;6110923;23;20048;-93
2023/03/11 07:15:15;;;;;;;3.22;2.10;;;;;;;14.11;69.91;97455.09;6136718;23;20005;-92
2023/03/11 07:17:41;;;;;;;2.22;1.60;;;;;;;14.01;67.68;97459.06;6135099;23;20001;-93
2023/03/11 07:20:08;;;;;;;2.13;1.65;;;;;;;13.91;67.20;97454.09;6135225;23;20491;-92
2023/03/11 07:22:34;;;;;;;2.10;1.20;;;;;;;13.95;66.53;97458.50;6110848;23;20032;-93
2023/03/11 07:24:59;;;;;;;2.80;1.40;;;;;;;13.98;65.95;97459.72;6110472;23;20008;-93
2023/03/11 07:27:26;;;;;;;1.38;1.10;;;;;;;13.95;64.97;97452.28;6111428;23;20009;-93
2023/03/11 07:29:52;;;;;;;1.67;1.15;;;;;;;13.95;65.32;97452.28;6135452;23;20016;-94
2023/03/11 07:32:18;;;;;;;3.20;1.48;;;;;;;13.85;65.48;97434.59;6110732;23;20001;-92
2023/03/11 07:34:43;;;;;;;1.73;0.95;;;;;;;14.09;65.07;97460.06;6110967;23;20045;-92
2023/03/11 07:37:12;;;;;;;2.70;1.40;;;;;;;14.07;65.39;97449.59;6110466;23;20471;-92
2023/03/11 07:39:38;;;;;;;2.13;1.33;;;;;;;13.93;65.38;97433.69;6112518;23;20067;-92
2023/03/11 07:42:13;;;;;;;2.67;1.40;;;;;;;13.99;66.26;97447.78;6111255;23;20399;-93
2023/03/11 07:44:39;;;;;;;1.63;1.30;;;;;;;13.73;66.40;97421.06;6113272;23;20001;-93
2023/03/11 07:47:05;;;;;;;2.55;1.77;;;;;;;13.82;66.99;97431.75;6110950;23;20000;-93
2023/03/11 07:49:31;;;;;;;3.03;1.63;;;;;;;13.73;67.74;97421.84;6134737;23;20063;-92
2023/03/11 07:51:57;;;;;;;3.92;1.50;;;;;;;13.86;67.31;97424.53;6134281;23;20091;-92
2023/03/11 07:54:23;;;;;;;2.70;1.75;;;;;;;14.02;66.19;97403.03;6110861;23;20035;-93
2023/03/11 07:56:54;;;;;;;2.28;1.65;;;;;;;14.27;65.64;97404.56;6111858;23;20426;-92
2023/03/11 07:59:29;;;;;;;3.90;2.45;;;;;;;14.32;64.73;97395.44;6110304;23;20005;-93
2023/03/11 08:01:55;;;;;;;4.75;1.40;;;;;;;14.50;65.27;97406.78;6110326;23;20009;-94
2023/03/11 08:04:21;;;;;;;1.70;1.30;;;;;;;14.74;64.32;97392.41;6110692;23;20001;-92
2023/03/11 08:06:47;;;;;;;1.73;1.02;;;;;;;14.61;63.64;97405.22;6134890;23;20059;-92
2023/03/11 08:09:15;;;;;;;3.03;1.23;;;;;;;14.90;63.54;97422.25;6110852;23;20045;-93
2023/03/11 08:11:41;;;;;;;2.67;1.15;;;;;;;15.06;61.50;97406.03;6112767;23;20083;-94
2023/03/11 08:14:07;;;;;;;1.98;0.90;;;;;;;15.35;61.24;97402.94;6112554;23;19997;-92
2023/03/11 08:16:33;;;;;;;1.45;0.85;;;;;;;15.55;59.66;97397.63;6111187;23;20084;-93
2023/03/11 08:18:59;;;;;;;2.42;1.00;;;;;;;15.75;60.13;97393.88;6110903;23;20005;-93
2023/03/11 08:21:32;;;;;;;3.45;1.58;;;;;;;15.75;59.79;97393.88;6135069;23;20000;-93
2023/03/11 08:24:02;;;;;;;1.27;1.05;;;;;;;16.02;58.12;97406.91;6113439;23;20001;-93
2023/03/11 08:26:28;;;;;;;1.30;0.93;;;;;;;15.88;55.73;97391.09;6135324;23;20006;-93
2023/03/11 08:28:54;;;;;;;1.27;0.98;;;;;;;15.86;55.43;97391.44;6135116;23;20000;-92
2023/03/11 08:31:25;;;;;;;1.60;1.00;;;;;;;15.74;56.33;97386.09;6110018;23;20005;-92
2023/03/11 08:33:54;;;;;;;2.17;1.08;;;;;;;15.83;54.24;97400.25;6111071;23;20415;-91
2023/03/11 08:36:19;;;;;;;3.35;0.80;;;;;;;15.79;53.37;97393.19;6135141;23;20004;-92
2023/03/11 08:38:45;;;;;;;1.50;1.17;;;;;;;15.72;54.15;97388.38;6134870;23;20425;-92
2023/03/11 08:41:14;;;;;;;2.03;1.35;;;;;;;15.70;54.17;97379.75;6135995;23;20012;-92
2023/03/11 08:43:43;;;;;;;1.35;0.95;;;;;;;15.63;53.95;97399.38;6135111;23;20068;-92
2023/03/11 08:46:13;;;;;;;1.10;0.90;;;;;;;15.57;53.49;97403.50;6134301;23;19997;-92
2023/03/11 08:48:39;;;;;;;1.50;0.85;;;;;;;15.39;53.84;97389.47;6136579;23;19993;-93
2023/03/11 08:51:13;;;;;;;2.50;1.50;;;;;;;15.32;53.49;97381.94;6112015;23;20007;-93
2023/03/11 08:53:38;;;;;;;2.03;1.40;;;;;;;15.41;53.38;97381.00;6112342;23;20001;-93
2023/03/11 08:56:04;;;;;;;1.48;1.00;;;;;;;15.38;53.57;97377.06;6112812;23;20063;-94
2023/03/11 08:58:31;;;;;;;1.30;0.82;;;;;;;15.42;53.26;97369.81;6112880;23;20009;-92
2023/03/11 09:01:00;;;;;;;1.00;0.90;;;;;;;15.40;54.09;97368.56;6136609;23;20029;-93
2023/03/11 09:03:26;;;;;;;1.58;0.60;;;;;;;15.32;52.64;97354.06;6112120;23;20005;-92
2023/03/11 09:06:02;;;;;;;1.00;0.80;;;;;;;15.44;54.42;97372.16;6161159;23;20051;-92
2023/03/11 09:08:28;;;;;;;1.75;0.93;;;;;;;15.53;54.26;97365.41;6138782;23;20064;-92
2023/03/11 09:10:54;;;;;;;2.00;1.10;;;;;;;15.46;53.20;97351.69;6136207;23;20088;-92
2023/03/11 09:13:19;;;;;;;3.38;1.30;;;;;;;15.44;54.48;97340.41;6112437;23;20078;-92
2023/03/11 09:15:46;;;;;;;1.80;1.13;;;;;;;15.55;53.23;97341.44;6111918;23;20060;-93
2023/03/11 09:18:12;;;;;;;1.27;0.82;;;;;;;15.77;51.25;97350.09;6111836;23;20428;-91
2023/03/11 09:20:38;;;;;;;1.50;0.90;;;;;;;15.79;51.05;97339.69;6111788;23;20009;-92
2023/03/11 09:23:04;;;;;;;2.28;1.15;;;;;;;15.89;51.12;97350.00;6135917;23;20063;-91
2023/03/11 09:25:30;;;;;;;1.65;0.98;;;;;;;15.92;50.66;97319.44;6136700;23;20079;-93
2023/03/11 09:27:56;;;;;;;2.03;1.52;;;;;;;16.03;49.49;97313.47;6135425;23;20001;-93
2023/03/11 09:30:22;;;;;;;4.18;1.40;;;;;;;16.20;51.40;97336.72;6111885;23;20480;-92
2023/03/11 09:32:47;;;;;;;1.35;0.80;;;;;;;16.37;49.25;97339.00;6135630;23;20440;-92
2023/03/11 09:35:13;;;;;;;1.73;0.77;;;;;;;16.40;48.09;97337.53;6135741;23;20444;-92
2023/03/11 09:37:39;;;;;;;1.08;0.60;;;;;;;16.56;46.60;97327.38;6111640;23;20001;-92
2023/03/11 09:40:05;;;;;;;3.72;0.98;;;;;;;16.72;48.08;97324.56;6111908;23;20498;-91
2023/03/11 09:42:54;;;;;;;0.93;0.63;;;;;;;16.82;46.86;97325.94;6135722;23;20411;-92
2023/03/11 09:45:30;;;;;;;1.38;1.00;;;;;;;16.95;46.46;97316.47;6113557;23;20005;-92
2023/03/11 09:48:21;;;;;;;2.05;1.20;;;;;;;17.16;45.38;97321.50;6111700;23;20025;-93
2023/03/11 09:50:52;;;;;;;1.10;0.70;;;;;;;17.19;44.62;97307.19;6185843;23;20001;-92
2023/03/11 09:53:41;;;;;;;1.90;0.70;;;;;;;17.12;44.15;97318.72;6113058;23;20092;-92
2023/03/11 09:56:17;;;;;;;1.33;0.80;;;;;;;17.08;44.69;97320.59;6125597;23;20005;-93
2023/03/11 09:58:42;;;;;;;2.15;0.80;;;;;;;17.13;44.73;97322.22;6137974;23;20005;-92
2023/03/11 10:01:29;;;;;;;1.45;0.75;;;;;;;17.24;44.91;97316.97;6160897;23;20447;-91
2023/03/11 10:04:15;;;;;;;1.70;0.70;;;;;;;17.04;44.48;97292.56;6137192;23;20372;-92
2023/03/11 10:06:41;;;;;;;1.58;1.20;;;;;;;17.25;45.12;97288.63;6113871;23;20009;-91
2023/03/11 10:09:15;;;;;;;1.40;0.90;;;;;;;17.34;44.53;97302.75;6112009;23;20019;-93
2023/03/11 10:12:09;;;;;;;2.63;0.90;;;;;;;17.24;43.80;97301.44;6160831;23;20092;-93
2023/03/11 10:14:50;;;;;;;0.75;0.60;;;;;;;17.19;44.31;97303.69;6113164;23;20004;-93
2023/03/11 10:17:40;;;;;;;1.30;0.93;;;;;;;17.22;43.87;97295.56;6136045;23;20498;-93
2023/03/11 10:20:19;;;;;;;1.45;0.60;;;;;;;17.16;43.77;97299.75;6164201;23;20037;-92
2023/03/11 10:23:16;;;;;;;0.88;0.77;;;;;;;17.14;45.03;97296.59;6160292;23;20008;-94
2023/03/11 10:25:54;;;;;;;1.73;0.90;;;;;;;17.03;44.50;97299.13;6135900;23;19997;-93
2023/03/11 10:28:21;;;;;;;1.33;0.70;;;;;;;16.78;45.09;97274.19;6135476;23;20051;-93
2023/03/11 10:30:59;;;;;;;1.83;0.90;;;;;;;16.82;45.74;97288.66;6112323;23;20001;-93
2023/03/11 10:33:57;;;;;;;1.10;0.80;;;;;;;16.79;45.57;97286.66;6112917;23;20032;-92
2023/03/11 10:36:30;;;;;;;1.52;0.73;;;;;;;16.75;45.21;97286.59;6161876;23;20084;-92
2023/03/11 10:38:56;;;;;;;1.67;0.98;;;;;;;16.71;45.31;97282.25;6135534;23;20504;-93
2023/03/11 10:41:31;;;;;;;2.30;0.80;;;;;;;16.69;46.75;97265.50;6110873;23;20063;-93
2023/03/11 10:44:03;;;;;;;2.28;1.17;;;;;;;16.86;45.91;97267.78;6111052;23;20004;-92
2023/03/11 10:46:29;;;;;;;1.13;0.75;;;;;;;16.86;43.99;97264.28;6111212;23;20055;-93
2023/03/11 10:48:54;;;;;;;5.70;1.05;;;;;;;16.84;44.31;97269.28;6135552;23;19993;-93
2023/03/11 10:51:26;;;;;;;1.80;1.20;;;;;;;16.93;43.62;97259.75;6110502;23;20432;-92
2023/03/11 10:53:56;;;;;;;2.78;1.60;;;;;;;17.20;43.68;97278.03;6135723;23;20001;-92
2023/03/11 10:56:32;;;;;;;2.92;1.25;;;;;;;17.24;43.75;97254.41;6110665;23;20059;-93
2023/03/11 10:58:58;;;;;;;2.50;1.27;;;;;;;17.30;43.75;97250.25;6110766;23;20436;-93
2023/03/11 11:01:25;;;;;;;3.63;1.60;;;;;;;17.15;42.37;97250.00;6112026;23;20008;-94
2023/03/11 11:03:54;;;;;;;3.05;1.67;;;;;;;16.98;42.10;97252.44;6115662;23;20432;-93
2023/03/11 11:06:48;;;;;;;2.97;1.35;;;;;;;17.01;43.12;97254.44;6136569;23;20001;-94
2023/03/11 11:09:16;;;;;;;1.77;1.10;;;;;;;17.07;43.00;97248.31;6132479;23;20059;-95
2023/03/11 11:11:43;;;;;;;1.85;0.90;;;;;;;17.17;43.23;97236.84;6111587;23;20523;-93
2023/03/11 11:14:09;;;;;;;1.30;1.00;;;;;;;17.28;41.73;97238.94;6111285;23;20399;-92
2023/03/11 11:16:35;;;;;;;5.70;2.08;;;;;;;17.21;42.93;97247.00;6111863;23;19996;-93
2023/03/11 11:23:15;;;;;;;1.50;1.15;;;;;;;17.32;43.67;97259.59;6096024;23;20033;-93
2023/03/11 11:25:41;;;;;;;1.80;1.23;;;;;;;17.23;43.50;97256.34;6129075;23;20494;-93
2023/03/11 11:28:17;;;;;;;4.00;1.30;;;;;;;17.31;43.63;97247.16;6110705;23;20008;-93
2023/03/11 11:31:00;;;;;;;2.85;1.73;;;;;;;17.28;41.56;97249.81;6111648;23;19996;-95
2023/03/11 11:33:28;;;;;;;1.80;1.20;;;;;;;17.30;41.74;97252.94;6110806;23;20048;-92
2023/03/11 11:36:01;;;;;;;2.53;1.65;;;;;;;17.19;42.39;97244.63;6160436;23;19997;-94
2023/03/11 11:38:28;;;;;;;1.92;1.50;;;;;;;17.15;41.38;97230.97;6112708;23;20079;-93
2023/03/11 11:40:55;;;;;;;4.25;1.73;;;;;;;17.24;40.81;97246.25;6135718;23;19997;-93
2023/03/11 11:43:43;;;;;;;3.13;1.80;;;;;;;17.21;40.93;97241.56;6110836;23;20012;-93
2023/03/11 11:46:30;;;;;;;3.67;2.10;;;;;;;17.12;41.12;97231.72;6163603;23;20104;-93